»·PEaware :: SWA8101 KBOI-KGEG

SWA8101 :: KBOI-KGEG

FLIGHT INFORMATION

Flight Status: Arrived
Operator:
Southwest Airlines
More flights by this operator :: More flights under this callsign
Pilot: John M. (9732)
Aircraft: BOEING 737-700
(B737)
More flights by this aircraft type
Origin: KBOI Boise Air Terminal/Gowen
United States
Destination: KGEG Spokane Intl
United States
More flights between these airports :: More routes between these airports
Route: +VALYY ODYSY
File this flight plan on PilotEdge
Remarks:
Altitude:
(Current/Filed)
28,000ft
Speed:
(Current/Filed)
450kts
Departed: 13-May-20 08:05 PM
Arrived: 13-May-20 08:59 PM
Distance/Time
Traveled:
250nm/0:54
Distance/Time
To Go:
Arrived

Flight Plot

Page will automatically refresh every two minutes.


Map Options




Map Legend


Flown Route
Filed Route
Departure Airport
Arrival Airport
Navaid (VOR, NDB)
Fix

Horizontal Profiles

Position Reports

Time Latitude Longitude Heading Altitude Ground
Speed
13-May-20 19:23 43.567068 -116.220145 30 2851ft 0kts
13-May-20 19:24 43.567068 -116.220145 30 2851ft 0kts
13-May-20 19:25 43.567068 -116.220145 30 2851ft 0kts
13-May-20 19:26 43.567068 -116.220145 30 2851ft 0kts
13-May-20 19:27 43.567068 -116.220145 30 2851ft 0kts
13-May-20 19:29 43.567068 -116.220145 30 2851ft 0kts
13-May-20 19:30 43.567068 -116.220145 30 2851ft 0kts
13-May-20 19:31 43.567068 -116.220145 30 2851ft 0kts
13-May-20 19:32 43.567068 -116.220145 30 2851ft 0kts
13-May-20 19:33 43.567068 -116.220145 30 2851ft 0kts
13-May-20 19:34 43.567068 -116.220145 30 2851ft 0kts
13-May-20 19:35 43.567068 -116.220145 30 2851ft 0kts
13-May-20 19:36 43.567068 -116.220145 30 2851ft 0kts
13-May-20 19:37 43.567068 -116.220145 30 2851ft 0kts
13-May-20 19:38 43.567068 -116.220145 30 2851ft 0kts
13-May-20 19:39 43.567068 -116.220145 30 2851ft 0kts
13-May-20 19:40 43.567068 -116.220145 30 2851ft 0kts
13-May-20 19:41 43.567068 -116.220145 30 2851ft 0kts
13-May-20 19:42 43.567068 -116.220145 30 2851ft 0kts
13-May-20 19:43 43.567068 -116.220145 30 2851ft 0kts
13-May-20 19:44 43.567068 -116.220145 30 2851ft 0kts
13-May-20 19:45 43.567068 -116.220145 30 2851ft 0kts
13-May-20 19:45 43.567068 -116.220145 30 2851ft 0kts
13-May-20 19:46 43.567068 -116.220145 30 2851ft 0kts
13-May-20 19:48 43.567068 -116.220145 30 2851ft 0kts
13-May-20 19:48 43.567068 -116.220145 30 2851ft 0kts
13-May-20 19:49 43.567068 -116.220145 30 2851ft 0kts
13-May-20 19:51 43.567064 -116.220148 30 2851ft 1kts
13-May-20 19:51 43.566688 -116.220440 4 2852ft 2kts
13-May-20 19:52 43.566406 -116.220158 291 2852ft 0kts
13-May-20 19:53 43.566406 -116.220159 291 2852ft 0kts
13-May-20 19:54 43.566406 -116.220159 291 2852ft 0kts
13-May-20 19:55 43.566406 -116.220159 291 2852ft 0kts
13-May-20 19:56 43.566408 -116.220164 291 2852ft 0kts
13-May-20 19:57 43.566409 -116.220168 291 2852ft 0kts
13-May-20 19:58 43.566403 -116.221548 241 2852ft 4kts
13-May-20 19:59 43.567727 -116.226056 295 2847ft 18kts
13-May-20 20:00 43.570192 -116.233296 295 2835ft 20kts
13-May-20 20:01 43.571115 -116.236602 271 2827ft 0kts
13-May-20 20:02 43.571108 -116.236678 258 2827ft 2kts
13-May-20 20:03 43.570129 -116.236574 152 2829ft 3kts
13-May-20 20:04 43.563834 -116.217711 116 2859ft 139kts
13-May-20 20:05 43.546278 -116.163990 115 4759ft 161kts
13-May-20 20:06 43.520624 -116.101202 121 6294ft 215kts
13-May-20 20:07 43.502459 -116.019550 79 9551ft 251kts
13-May-20 20:08 43.555229 -115.962384 357 12887ft 270kts
13-May-20 20:09 43.632937 -115.971219 348 15988ft 303kts
13-May-20 20:10 43.721737 -115.987620 347 18752ft 344kts
13-May-20 20:11 43.821135 -116.005970 346 21441ft 376kts
13-May-20 20:12 43.926678 -116.025525 346 24323ft 392kts
13-May-20 20:13 44.036987 -116.046096 344 26861ft 409kts
13-May-20 20:14 44.149287 -116.066685 344 27968ft 404kts
13-May-20 20:15 44.262854 -116.075118 0 27987ft 429kts
13-May-20 20:16 44.379987 -116.063063 345 28008ft 410kts
13-May-20 20:17 44.490577 -116.095593 339 27995ft 408kts
13-May-20 20:18 44.600208 -116.130959 340 27996ft 406kts
13-May-20 20:19 44.710205 -116.166601 340 28001ft 407kts
13-May-20 20:20 44.820509 -116.202330 340 27994ft 404kts
13-May-20 20:21 44.931234 -116.238619 341 27997ft 412kts
13-May-20 20:22 45.042591 -116.275177 342 27998ft 411kts
13-May-20 20:23 45.154454 -116.311983 342 27514ft 415kts
13-May-20 20:24 45.266316 -116.348985 343 26014ft 417kts
13-May-20 20:25 45.378751 -116.386309 343 24670ft 417kts
13-May-20 20:26 45.492706 -116.423453 344 23552ft 419kts
13-May-20 20:27 45.606563 -116.462250 344 22529ft 424kts
13-May-20 20:28 45.722280 -116.501189 344 21499ft 429kts
13-May-20 20:29 45.838283 -116.540327 344 20502ft 432kts
13-May-20 20:30 45.955590 -116.580130 344 19501ft 435kts
13-May-20 20:31 46.073378 -116.620213 345 18503ft 438kts
13-May-20 20:32 46.184071 -116.658024 344 17461ft 375kts
13-May-20 20:33 46.282787 -116.691981 344 16457ft 361kts
13-May-20 20:34 46.379243 -116.725209 344 15458ft 353kts
13-May-20 20:35 46.473548 -116.757830 344 14859ft 349kts
13-May-20 20:36 46.567426 -116.790397 343 14361ft 345kts
13-May-20 20:37 46.660227 -116.822714 344 13865ft 341kts
13-May-20 20:38 46.752183 -116.854846 344 13368ft 339kts
13-May-20 20:39 46.843191 -116.886758 344 13030ft 336kts
13-May-20 20:40 46.934052 -116.918727 344 13027ft 337kts
13-May-20 20:41 47.025273 -116.950924 344 13027ft 337kts
13-May-20 20:42 47.115566 -116.982888 344 12394ft 318kts
13-May-20 20:43 47.197411 -117.006498 347 11380ft 285kts
13-May-20 20:44 47.272484 -117.026878 347 10371ft 270kts
13-May-20 20:45 47.345964 -117.047714 344 9367ft 265kts
13-May-20 20:46 47.415891 -117.071710 344 8360ft 253kts
13-May-20 20:47 47.478846 -117.097410 341 8006ft 217kts
13-May-20 20:48 47.534523 -117.123812 334 8001ft 206kts
13-May-20 20:49 47.587556 -117.155856 334 7994ft 207kts
13-May-20 20:50 47.638965 -117.192226 316 7012ft 200kts
13-May-20 20:51 47.677807 -117.243959 314 6048ft 177kts
13-May-20 20:52 47.710979 -117.294716 289 5299ft 158kts
13-May-20 20:53 47.710546 -117.358307 261 4316ft 155kts
13-May-20 20:54 47.696871 -117.413616 241 3667ft 136kts
13-May-20 20:55 47.672511 -117.455558 227 3114ft 133kts
13-May-20 20:56 47.645777 -117.496257 226 2706ft 143kts
13-May-20 20:57 47.620776 -117.534062 226 2364ft 58kts
13-May-20 20:58 47.618146 -117.540385 271 2368ft 11kts
13-May-20 20:59 47.619878 -117.539384 46 2361ft 11kts
13-May-20 21:00 47.621879 -117.536381 45 2359ft 10kts
13-May-20 21:01 47.624001 -117.533895 331 2357ft 6kts
13-May-20 21:02 47.625208 -117.532825 29 2355ft 4kts
13-May-20 21:03 47.625999 -117.533848 272 2355ft 3kts
13-May-20 21:04 47.625859 -117.534320 235 2355ft 0kts
13-May-20 21:05 47.625859 -117.534320 235 2355ft 0kts
13-May-20 21:06 47.625859 -117.534320 235 2355ft 0kts

Navigation Log

Ident Type
Flight plan parsing failed, navigation log unavailable